sensor_id;sensor_type;location;lat;lon;timestamp;P1;durP1;ratioP1;P2;durP2;ratioP2
11829;SDS011;5972;42.134;24.718;2023-07-31T00:00:14;4.80;;;1.75;;
11829;SDS011;5972;42.134;24.718;2023-07-31T00:02:41;4.10;;;1.88;;
11829;SDS011;5972;42.134;24.718;2023-07-31T00:05:09;3.72;;;1.52;;
11829;SDS011;5972;42.134;24.718;2023-07-31T00:07:36;2.67;;;1.42;;
11829;SDS011;5972;42.134;24.718;2023-07-31T00:10:03;2.60;;;1.58;;
11829;SDS011;5972;42.134;24.718;2023-07-31T00:12:30;1.85;;;1.70;;
11829;SDS011;5972;42.134;24.718;2023-07-31T00:14:56;2.78;;;1.42;;
11829;SDS011;5972;42.134;24.718;2023-07-31T00:17:23;2.30;;;1.55;;
11829;SDS011;5972;42.134;24.718;2023-07-31T00:19:50;4.78;;;1.50;;
11829;SDS011;5972;42.134;24.718;2023-07-31T00:22:18;2.28;;;1.70;;
11829;SDS011;5972;42.134;24.718;2023-07-31T00:24:45;4.75;;;1.77;;
11829;SDS011;5972;42.134;24.718;2023-07-31T00:27:12;4.97;;;1.67;;
11829;SDS011;5972;42.134;24.718;2023-07-31T00:29:38;3.50;;;1.63;;
11829;SDS011;5972;42.134;24.718;2023-07-31T00:32:06;5.03;;;1.67;;
11829;SDS011;5972;42.134;24.718;2023-07-31T00:34:33;4.03;;;1.70;;
11829;SDS011;5972;42.134;24.718;2023-07-31T00:37:00;2.10;;;1.33;;
11829;SDS011;5972;42.134;24.718;2023-07-31T00:39:29;4.65;;;1.77;;
11829;SDS011;5972;42.134;24.718;2023-07-31T00:41:56;1.73;;;1.52;;
11829;SDS011;5972;42.134;24.718;2023-07-31T00:44:23;3.75;;;1.60;;
11829;SDS011;5972;42.134;24.718;2023-07-31T00:46:50;3.03;;;1.60;;
11829;SDS011;5972;42.134;24.718;2023-07-31T00:49:17;2.78;;;1.70;;
11829;SDS011;5972;42.134;24.718;2023-07-31T00:51:44;3.38;;;1.67;;
11829;SDS011;5972;42.134;24.718;2023-07-31T00:54:11;5.35;;;1.75;;
11829;SDS011;5972;42.134;24.718;2023-07-31T00:56:39;2.55;;;1.67;;
11829;SDS011;5972;42.134;24.718;2023-07-31T00:59:07;5.68;;;1.67;;
11829;SDS011;5972;42.134;24.718;2023-07-31T01:01:34;5.03;;;2.17;;
11829;SDS011;5972;42.134;24.718;2023-07-31T01:04:01;3.40;;;2.10;;
11829;SDS011;5972;42.134;24.718;2023-07-31T01:06:31;2.53;;;1.85;;
11829;SDS011;5972;42.134;24.718;2023-07-31T01:09:07;4.75;;;2.00;;
11829;SDS011;5972;42.134;24.718;2023-07-31T01:11:42;3.75;;;2.50;;
11829;SDS011;5972;42.134;24.718;2023-07-31T01:14:13;2.58;;;2.38;;
11829;SDS011;5972;42.134;24.718;2023-07-31T01:16:40;5.75;;;3.00;;
11829;SDS011;5972;42.134;24.718;2023-07-31T01:19:07;4.45;;;2.60;;
11829;SDS011;5972;42.134;24.718;2023-07-31T01:21:43;4.20;;;2.70;;
11829;SDS011;5972;42.134;24.718;2023-07-31T01:24:25;3.67;;;2.78;;
11829;SDS011;5972;42.134;24.718;2023-07-31T01:27:02;5.03;;;2.63;;
11829;SDS011;5972;42.134;24.718;2023-07-31T01:29:36;5.35;;;2.70;;
11829;SDS011;5972;42.134;24.718;2023-07-31T01:32:09;3.33;;;2.55;;
11829;SDS011;5972;42.134;24.718;2023-07-31T01:34:38;3.75;;;2.65;;
11829;SDS011;5972;42.134;24.718;2023-07-31T01:37:07;3.63;;;2.97;;
11829;SDS011;5972;42.134;24.718;2023-07-31T01:39:34;6.80;;;2.85;;
11829;SDS011;5972;42.134;24.718;2023-07-31T01:42:02;8.38;;;3.38;;
11829;SDS011;5972;42.134;24.718;2023-07-31T01:44:29;10.15;;;3.63;;
11829;SDS011;5972;42.134;24.718;2023-07-31T01:46:55;4.57;;;3.55;;
11829;SDS011;5972;42.134;24.718;2023-07-31T01:49:24;6.72;;;3.88;;
11829;SDS011;5972;42.134;24.718;2023-07-31T01:51:51;6.95;;;4.93;;
11829;SDS011;5972;42.134;24.718;2023-07-31T01:54:17;8.90;;;4.32;;
11829;SDS011;5972;42.134;24.718;2023-07-31T01:56:44;10.27;;;5.28;;
11829;SDS011;5972;42.134;24.718;2023-07-31T01:59:12;7.85;;;5.28;;
11829;SDS011;5972;42.134;24.718;2023-07-31T02:01:39;8.27;;;6.07;;
11829;SDS011;5972;42.134;24.718;2023-07-31T02:04:06;8.68;;;5.50;;
11829;SDS011;5972;42.134;24.718;2023-07-31T02:06:32;7.80;;;5.53;;
11829;SDS011;5972;42.134;24.718;2023-07-31T02:08:59;6.95;;;4.90;;
11829;SDS011;5972;42.134;24.718;2023-07-31T02:11:26;7.95;;;5.22;;
11829;SDS011;5972;42.134;24.718;2023-07-31T02:13:53;7.05;;;4.20;;
11829;SDS011;5972;42.134;24.718;2023-07-31T02:16:20;5.72;;;3.80;;
11829;SDS011;5972;42.134;24.718;2023-07-31T02:18:46;4.65;;;3.10;;
11829;SDS011;5972;42.134;24.718;2023-07-31T02:21:13;7.90;;;3.10;;
11829;SDS011;5972;42.134;24.718;2023-07-31T02:23:40;2.95;;;2.67;;
11829;SDS011;5972;42.134;24.718;2023-07-31T02:26:07;5.20;;;2.50;;
11829;SDS011;5972;42.134;24.718;2023-07-31T02:28:33;5.07;;;2.40;;
11829;SDS011;5972;42.134;24.718;2023-07-31T02:31:00;5.18;;;2.55;;
11829;SDS011;5972;42.134;24.718;2023-07-31T02:33:28;5.00;;;2.55;;
11829;SDS011;5972;42.134;24.718;2023-07-31T02:35:55;6.07;;;2.50;;
11829;SDS011;5972;42.134;24.718;2023-07-31T02:38:22;3.58;;;2.75;;
11829;SDS011;5972;42.134;24.718;2023-07-31T02:40:49;5.47;;;2.97;;
11829;SDS011;5972;42.134;24.718;2023-07-31T02:43:15;4.82;;;3.10;;
11829;SDS011;5972;42.134;24.718;2023-07-31T02:45:42;4.78;;;2.90;;
11829;SDS011;5972;42.134;24.718;2023-07-31T02:48:09;3.22;;;2.88;;
11829;SDS011;5972;42.134;24.718;2023-07-31T02:50:37;3.80;;;2.90;;
11829;SDS011;5972;42.134;24.718;2023-07-31T02:53:04;3.28;;;2.97;;
11829;SDS011;5972;42.134;24.718;2023-07-31T02:55:30;5.50;;;3.00;;
11829;SDS011;5972;42.134;24.718;2023-07-31T02:57:57;6.05;;;3.33;;
11829;SDS011;5972;42.134;24.718;2023-07-31T03:00:24;5.65;;;3.08;;
11829;SDS011;5972;42.134;24.718;2023-07-31T03:02:51;3.88;;;3.05;;
11829;SDS011;5972;42.134;24.718;2023-07-31T03:05:18;7.70;;;3.40;;
11829;SDS011;5972;42.134;24.718;2023-07-31T03:07:46;5.75;;;3.25;;
11829;SDS011;5972;42.134;24.718;2023-07-31T03:10:12;4.28;;;3.15;;
11829;SDS011;5972;42.134;24.718;2023-07-31T03:12:39;3.60;;;3.30;;
11829;SDS011;5972;42.134;24.718;2023-07-31T03:15:07;5.15;;;3.42;;
11829;SDS011;5972;42.134;24.718;2023-07-31T03:17:34;5.35;;;4.05;;
11829;SDS011;5972;42.134;24.718;2023-07-31T03:20:01;7.78;;;4.15;;
11829;SDS011;5972;42.134;24.718;2023-07-31T03:22:28;9.32;;;4.57;;
11829;SDS011;5972;42.134;24.718;2023-07-31T03:24:56;7.25;;;4.57;;
11829;SDS011;5972;42.134;24.718;2023-07-31T03:27:23;8.63;;;4.93;;
11829;SDS011;5972;42.134;24.718;2023-07-31T03:29:50;5.22;;;4.72;;
11829;SDS011;5972;42.134;24.718;2023-07-31T03:32:17;5.55;;;4.85;;
11829;SDS011;5972;42.134;24.718;2023-07-31T03:34:43;5.88;;;5.22;;
11829;SDS011;5972;42.134;24.718;2023-07-31T03:37:10;7.72;;;5.53;;
11829;SDS011;5972;42.134;24.718;2023-07-31T03:39:37;6.85;;;5.35;;
11829;SDS011;5972;42.134;24.718;2023-07-31T03:42:06;7.25;;;5.07;;
11829;SDS011;5972;42.134;24.718;2023-07-31T03:44:32;9.98;;;5.60;;
11829;SDS011;5972;42.134;24.718;2023-07-31T03:46:59;7.30;;;5.65;;
11829;SDS011;5972;42.134;24.718;2023-07-31T03:49:26;7.43;;;5.65;;
11829;SDS011;5972;42.134;24.718;2023-07-31T03:51:53;7.57;;;5.35;;
11829;SDS011;5972;42.134;24.718;2023-07-31T03:54:20;5.05;;;4.45;;
11829;SDS011;5972;42.134;24.718;2023-07-31T03:56:47;5.47;;;4.60;;
11829;SDS011;5972;42.134;24.718;2023-07-31T03:59:15;7.18;;;4.25;;
11829;SDS011;5972;42.134;24.718;2023-07-31T04:01:41;7.75;;;4.57;;
11829;SDS011;5972;42.134;24.718;2023-07-31T04:04:08;11.50;;;4.93;;
11829;SDS011;5972;42.134;24.718;2023-07-31T04:06:35;4.95;;;4.45;;
11829;SDS011;5972;42.134;24.718;2023-07-31T04:09:02;5.10;;;4.55;;
11829;SDS011;5972;42.134;24.718;2023-07-31T04:11:29;5.22;;;4.72;;
11829;SDS011;5972;42.134;24.718;2023-07-31T04:13:56;4.97;;;4.30;;
11829;SDS011;5972;42.134;24.718;2023-07-31T04:16:24;6.60;;;4.47;;
11829;SDS011;5972;42.134;24.718;2023-07-31T04:18:50;5.65;;;4.70;;
11829;SDS011;5972;42.134;24.718;2023-07-31T04:21:17;5.30;;;4.85;;
11829;SDS011;5972;42.134;24.718;2023-07-31T04:23:44;5.63;;;4.82;;
11829;SDS011;5972;42.134;24.718;2023-07-31T04:26:11;5.60;;;5.07;;
11829;SDS011;5972;42.134;24.718;2023-07-31T04:28:37;5.43;;;4.93;;
11829;SDS011;5972;42.134;24.718;2023-07-31T04:31:04;4.60;;;4.20;;
11829;SDS011;5972;42.134;24.718;2023-07-31T04:33:32;5.10;;;4.60;;
11829;SDS011;5972;42.134;24.718;2023-07-31T04:35:59;6.05;;;4.65;;
11829;SDS011;5972;42.134;24.718;2023-07-31T04:38:26;5.32;;;4.70;;
11829;SDS011;5972;42.134;24.718;2023-07-31T04:40:53;5.05;;;4.43;;
11829;SDS011;5972;42.134;24.718;2023-07-31T04:43:19;4.93;;;4.00;;
11829;SDS011;5972;42.134;24.718;2023-07-31T04:45:46;4.70;;;4.20;;
11829;SDS011;5972;42.134;24.718;2023-07-31T04:48:15;5.57;;;4.70;;
11829;SDS011;5972;42.134;24.718;2023-07-31T04:50:43;5.63;;;4.25;;
11829;SDS011;5972;42.134;24.718;2023-07-31T04:53:09;4.18;;;3.78;;
11829;SDS011;5972;42.134;24.718;2023-07-31T04:55:37;5.18;;;4.40;;
11829;SDS011;5972;42.134;24.718;2023-07-31T04:58:03;5.25;;;4.75;;
11829;SDS011;5972;42.134;24.718;2023-07-31T05:00:30;6.07;;;4.25;;
11829;SDS011;5972;42.134;24.718;2023-07-31T05:02:57;6.20;;;4.20;;
11829;SDS011;5972;42.134;24.718;2023-07-31T05:05:24;5.45;;;4.35;;
11829;SDS011;5972;42.134;24.718;2023-07-31T05:07:52;8.77;;;5.60;;
11829;SDS011;5972;42.134;24.718;2023-07-31T05:10:18;7.07;;;4.85;;
11829;SDS011;5972;42.134;24.718;2023-07-31T05:12:45;9.93;;;4.65;;
11829;SDS011;5972;42.134;24.718;2023-07-31T05:15:12;6.28;;;4.70;;
11829;SDS011;5972;42.134;24.718;2023-07-31T05:17:39;6.72;;;4.68;;
11829;SDS011;5972;42.134;24.718;2023-07-31T05:20:06;6.40;;;4.70;;
11829;SDS011;5972;42.134;24.718;2023-07-31T05:22:34;6.53;;;3.90;;
11829;SDS011;5972;42.134;24.718;2023-07-31T05:25:02;7.43;;;4.00;;
11829;SDS011;5972;42.134;24.718;2023-07-31T05:27:29;12.60;;;4.38;;
11829;SDS011;5972;42.134;24.718;2023-07-31T05:29:56;15.60;;;4.32;;
11829;SDS011;5972;42.134;24.718;2023-07-31T05:32:23;8.45;;;4.18;;
11829;SDS011;5972;42.134;24.718;2023-07-31T05:34:50;12.68;;;4.10;;
11829;SDS011;5972;42.134;24.718;2023-07-31T05:37:18;9.18;;;3.85;;
11829;SDS011;5972;42.134;24.718;2023-07-31T05:39:45;9.35;;;3.90;;
11829;SDS011;5972;42.134;24.718;2023-07-31T05:42:13;13.15;;;3.90;;
11829;SDS011;5972;42.134;24.718;2023-07-31T05:44:40;10.07;;;4.28;;
11829;SDS011;5972;42.134;24.718;2023-07-31T05:47:07;9.88;;;4.38;;
11829;SDS011;5972;42.134;24.718;2023-07-31T05:49:33;7.55;;;4.30;;
11829;SDS011;5972;42.134;24.718;2023-07-31T05:52:00;5.22;;;4.05;;
11829;SDS011;5972;42.134;24.718;2023-07-31T05:54:27;8.38;;;3.90;;
11829;SDS011;5972;42.134;24.718;2023-07-31T05:56:54;8.82;;;4.40;;
11829;SDS011;5972;42.134;24.718;2023-07-31T05:59:22;6.80;;;4.38;;
11829;SDS011;5972;42.134;24.718;2023-07-31T06:01:49;6.18;;;4.43;;
11829;SDS011;5972;42.134;24.718;2023-07-31T06:04:15;4.97;;;4.47;;
11829;SDS011;5972;42.134;24.718;2023-07-31T06:06:42;4.68;;;4.28;;
11829;SDS011;5972;42.134;24.718;2023-07-31T06:09:09;4.30;;;4.00;;
11829;SDS011;5972;42.134;24.718;2023-07-31T06:11:36;4.65;;;4.25;;
11829;SDS011;5972;42.134;24.718;2023-07-31T06:14:03;5.55;;;4.90;;
11829;SDS011;5972;42.134;24.718;2023-07-31T06:16:31;6.22;;;5.07;;
11829;SDS011;5972;42.134;24.718;2023-07-31T06:18:58;5.40;;;4.47;;
11829;SDS011;5972;42.134;24.718;2023-07-31T06:21:25;5.55;;;5.03;;
11829;SDS011;5972;42.134;24.718;2023-07-31T06:23:52;5.85;;;5.25;;
11829;SDS011;5972;42.134;24.718;2023-07-31T06:26:18;7.00;;;5.65;;
11829;SDS011;5972;42.134;24.718;2023-07-31T06:28:45;6.07;;;5.47;;
11829;SDS011;5972;42.134;24.718;2023-07-31T06:31:12;6.72;;;5.85;;
11829;SDS011;5972;42.134;24.718;2023-07-31T06:33:40;7.88;;;6.22;;
11829;SDS011;5972;42.134;24.718;2023-07-31T06:36:07;6.90;;;6.18;;
11829;SDS011;5972;42.134;24.718;2023-07-31T06:38:34;6.75;;;6.15;;
11829;SDS011;5972;42.134;24.718;2023-07-31T06:41:02;7.18;;;6.50;;
11829;SDS011;5972;42.134;24.718;2023-07-31T06:43:29;7.72;;;7.03;;
11829;SDS011;5972;42.134;24.718;2023-07-31T06:45:56;7.80;;;7.05;;
11829;SDS011;5972;42.134;24.718;2023-07-31T06:48:23;8.75;;;7.25;;
11829;SDS011;5972;42.134;24.718;2023-07-31T06:50:51;9.40;;;7.75;;
11829;SDS011;5972;42.134;24.718;2023-07-31T06:53:18;7.82;;;7.10;;
11829;SDS011;5972;42.134;24.718;2023-07-31T06:55:44;8.13;;;6.82;;
11829;SDS011;5972;42.134;24.718;2023-07-31T06:58:13;7.25;;;6.55;;
11829;SDS011;5972;42.134;24.718;2023-07-31T07:00:40;7.35;;;6.75;;
11829;SDS011;5972;42.134;24.718;2023-07-31T07:03:06;7.78;;;7.07;;
11829;SDS011;5972;42.134;24.718;2023-07-31T07:05:33;8.75;;;7.63;;
11829;SDS011;5972;42.134;24.718;2023-07-31T07:08:01;8.23;;;6.90;;
11829;SDS011;5972;42.134;24.718;2023-07-31T07:10:28;9.32;;;7.30;;
11829;SDS011;5972;42.134;24.718;2023-07-31T07:12:55;8.90;;;8.10;;
11829;SDS011;5972;42.134;24.718;2023-07-31T07:15:22;11.43;;;8.13;;
11829;SDS011;5972;42.134;24.718;2023-07-31T07:17:48;8.60;;;7.80;;
11829;SDS011;5972;42.134;24.718;2023-07-31T07:20:15;9.48;;;8.52;;
11829;SDS011;5972;42.134;24.718;2023-07-31T07:22:42;9.00;;;8.30;;
11829;SDS011;5972;42.134;24.718;2023-07-31T07:25:10;9.50;;;8.70;;
11829;SDS011;5972;42.134;24.718;2023-07-31T07:27:37;9.57;;;8.77;;
11829;SDS011;5972;42.134;24.718;2023-07-31T07:30:04;9.75;;;8.85;;
11829;SDS011;5972;42.134;24.718;2023-07-31T07:32:32;9.45;;;8.68;;
11829;SDS011;5972;42.134;24.718;2023-07-31T07:34:58;9.20;;;8.48;;
11829;SDS011;5972;42.134;24.718;2023-07-31T07:37:25;10.02;;;9.02;;
11829;SDS011;5972;42.134;24.718;2023-07-31T07:39:52;9.48;;;8.50;;
11829;SDS011;5972;42.134;24.718;2023-07-31T07:42:20;10.15;;;9.20;;
11829;SDS011;5972;42.134;24.718;2023-07-31T07:44:47;11.15;;;10.15;;
11829;SDS011;5972;42.134;24.718;2023-07-31T07:47:14;12.90;;;10.05;;
11829;SDS011;5972;42.134;24.718;2023-07-31T07:49:41;10.23;;;9.35;;
11829;SDS011;5972;42.134;24.718;2023-07-31T07:52:08;11.90;;;9.35;;
11829;SDS011;5972;42.134;24.718;2023-07-31T07:54:35;11.00;;;9.95;;
11829;SDS011;5972;42.134;24.718;2023-07-31T07:57:02;10.70;;;9.60;;
11829;SDS011;5972;42.134;24.718;2023-07-31T07:59:30;10.70;;;9.73;;
11829;SDS011;5972;42.134;24.718;2023-07-31T08:01:57;9.48;;;8.77;;
11829;SDS011;5972;42.134;24.718;2023-07-31T08:04:24;9.10;;;8.27;;
11829;SDS011;5972;42.134;24.718;2023-07-31T08:06:51;8.45;;;7.63;;
11829;SDS011;5972;42.134;24.718;2023-07-31T08:09:17;8.32;;;7.60;;
11829;SDS011;5972;42.134;24.718;2023-07-31T08:11:44;9.93;;;8.80;;
11829;SDS011;5972;42.134;24.718;2023-07-31T08:14:11;9.60;;;8.70;;
11829;SDS011;5972;42.134;24.718;2023-07-31T08:16:39;9.02;;;8.23;;
11829;SDS011;5972;42.134;24.718;2023-07-31T08:19:06;10.40;;;9.50;;
11829;SDS011;5972;42.134;24.718;2023-07-31T08:21:33;11.85;;;10.80;;
11829;SDS011;5972;42.134;24.718;2023-07-31T08:24:00;11.98;;;10.93;;
11829;SDS011;5972;42.134;24.718;2023-07-31T08:26:26;12.65;;;11.40;;
11829;SDS011;5972;42.134;24.718;2023-07-31T08:28:53;11.70;;;10.80;;
11829;SDS011;5972;42.134;24.718;2023-07-31T08:31:20;11.27;;;10.13;;
11829;SDS011;5972;42.134;24.718;2023-07-31T08:33:48;13.32;;;10.55;;
11829;SDS011;5972;42.134;24.718;2023-07-31T08:36:15;11.05;;;10.10;;
11829;SDS011;5972;42.134;24.718;2023-07-31T08:38:41;10.18;;;9.43;;
11829;SDS011;5972;42.134;24.718;2023-07-31T08:41:08;11.25;;;9.57;;
11829;SDS011;5972;42.134;24.718;2023-07-31T08:43:35;10.30;;;9.30;;
11829;SDS011;5972;42.134;24.718;2023-07-31T08:46:04;10.40;;;9.40;;
11829;SDS011;5972;42.134;24.718;2023-07-31T08:48:31;9.82;;;8.95;;
11829;SDS011;5972;42.134;24.718;2023-07-31T08:51:00;8.70;;;8.00;;
11829;SDS011;5972;42.134;24.718;2023-07-31T08:53:26;9.85;;;8.95;;
11829;SDS011;5972;42.134;24.718;2023-07-31T08:55:53;8.63;;;7.80;;
11829;SDS011;5972;42.134;24.718;2023-07-31T08:58:21;8.65;;;7.95;;
11829;SDS011;5972;42.134;24.718;2023-07-31T09:00:50;9.05;;;8.35;;
11829;SDS011;5972;42.134;24.718;2023-07-31T09:03:18;7.55;;;6.85;;
11829;SDS011;5972;42.134;24.718;2023-07-31T09:05:46;7.78;;;7.22;;
11829;SDS011;5972;42.134;24.718;2023-07-31T09:08:15;9.18;;;8.32;;
11829;SDS011;5972;42.134;24.718;2023-07-31T09:10:45;8.93;;;8.10;;
11829;SDS011;5972;42.134;24.718;2023-07-31T09:13:13;10.02;;;9.23;;
11829;SDS011;5972;42.134;24.718;2023-07-31T09:15:40;8.88;;;8.18;;
11829;SDS011;5972;42.134;24.718;2023-07-31T09:18:08;8.52;;;7.80;;
11829;SDS011;5972;42.134;24.718;2023-07-31T09:20:39;8.48;;;7.80;;
11829;SDS011;5972;42.134;24.718;2023-07-31T09:23:06;9.05;;;8.20;;
11829;SDS011;5972;42.134;24.718;2023-07-31T09:25:36;10.88;;;9.68;;
11829;SDS011;5972;42.134;24.718;2023-07-31T09:28:04;9.65;;;8.85;;
11829;SDS011;5972;42.134;24.718;2023-07-31T09:30:32;10.32;;;9.43;;
11829;SDS011;5972;42.134;24.718;2023-07-31T09:33:11;10.05;;;9.25;;
11829;SDS011;5972;42.134;24.718;2023-07-31T09:35:38;9.48;;;8.73;;
11829;SDS011;5972;42.134;24.718;2023-07-31T09:38:06;9.40;;;8.68;;
11829;SDS011;5972;42.134;24.718;2023-07-31T09:40:36;9.55;;;8.65;;
11829;SDS011;5972;42.134;24.718;2023-07-31T09:43:05;9.90;;;9.13;;
11829;SDS011;5972;42.134;24.718;2023-07-31T09:45:33;8.10;;;7.50;;
11829;SDS011;5972;42.134;24.718;2023-07-31T09:48:02;7.72;;;7.00;;
11829;SDS011;5972;42.134;24.718;2023-07-31T09:50:29;9.13;;;8.43;;
11829;SDS011;5972;42.134;24.718;2023-07-31T09:52:56;9.15;;;8.25;;
11829;SDS011;5972;42.134;24.718;2023-07-31T09:55:23;9.27;;;8.48;;
11829;SDS011;5972;42.134;24.718;2023-07-31T09:57:51;8.13;;;7.40;;
11829;SDS011;5972;42.134;24.718;2023-07-31T10:00:23;7.95;;;7.22;;
11829;SDS011;5972;42.134;24.718;2023-07-31T10:02:50;8.65;;;7.82;;
11829;SDS011;5972;42.134;24.718;2023-07-31T10:05:19;9.00;;;8.13;;
11829;SDS011;5972;42.134;24.718;2023-07-31T10:07:49;9.10;;;8.30;;
11829;SDS011;5972;42.134;24.718;2023-07-31T10:10:20;8.63;;;7.72;;
11829;SDS011;5972;42.134;24.718;2023-07-31T10:12:48;8.25;;;7.65;;
11829;SDS011;5972;42.134;24.718;2023-07-31T10:15:17;7.97;;;7.47;;
11829;SDS011;5972;42.134;24.718;2023-07-31T10:17:44;7.97;;;7.25;;
11829;SDS011;5972;42.134;24.718;2023-07-31T10:20:13;8.07;;;7.38;;
11829;SDS011;5972;42.134;24.718;2023-07-31T10:22:41;7.82;;;7.28;;
11829;SDS011;5972;42.134;24.718;2023-07-31T10:25:09;7.55;;;6.93;;
11829;SDS011;5972;42.134;24.718;2023-07-31T10:27:36;8.13;;;7.40;;
11829;SDS011;5972;42.134;24.718;2023-07-31T10:30:05;8.10;;;7.40;;
11829;SDS011;5972;42.134;24.718;2023-07-31T10:32:36;7.63;;;7.13;;
11829;SDS011;5972;42.134;24.718;2023-07-31T10:35:06;7.70;;;7.10;;
11829;SDS011;5972;42.134;24.718;2023-07-31T10:37:36;7.72;;;7.00;;
11829;SDS011;5972;42.134;24.718;2023-07-31T10:40:04;8.95;;;6.93;;
11829;SDS011;5972;42.134;24.718;2023-07-31T10:42:35;7.47;;;6.97;;
11829;SDS011;5972;42.134;24.718;2023-07-31T10:45:04;7.47;;;6.97;;
11829;SDS011;5972;42.134;24.718;2023-07-31T10:47:37;7.53;;;6.93;;
11829;SDS011;5972;42.134;24.718;2023-07-31T10:50:11;6.93;;;5.85;;
11829;SDS011;5972;42.134;24.718;2023-07-31T10:52:49;6.00;;;5.40;;
11829;SDS011;5972;42.134;24.718;2023-07-31T10:55:25;6.05;;;5.65;;
11829;SDS011;5972;42.134;24.718;2023-07-31T10:57:53;6.57;;;5.65;;
11829;SDS011;5972;42.134;24.718;2023-07-31T11:00:21;6.40;;;5.90;;
11829;SDS011;5972;42.134;24.718;2023-07-31T11:02:58;6.40;;;5.45;;
11829;SDS011;5972;42.134;24.718;2023-07-31T11:08:20;5.40;;;4.90;;
11829;SDS011;5972;42.134;24.718;2023-07-31T11:10:49;5.45;;;5.05;;
11829;SDS011;5972;42.134;24.718;2023-07-31T11:13:19;5.55;;;5.15;;
11829;SDS011;5972;42.134;24.718;2023-07-31T11:15:45;5.75;;;5.10;;
11829;SDS011;5972;42.134;24.718;2023-07-31T11:18:14;5.65;;;5.13;;
11829;SDS011;5972;42.134;24.718;2023-07-31T11:20:42;6.47;;;5.68;;
11829;SDS011;5972;42.134;24.718;2023-07-31T11:23:09;9.60;;;6.15;;
11829;SDS011;5972;42.134;24.718;2023-07-31T11:25:36;7.18;;;6.45;;
11829;SDS011;5972;42.134;24.718;2023-07-31T11:28:07;6.80;;;5.90;;
11829;SDS011;5972;42.134;24.718;2023-07-31T11:30:35;6.07;;;5.57;;
11829;SDS011;5972;42.134;24.718;2023-07-31T11:33:02;9.35;;;5.60;;
11829;SDS011;5972;42.134;24.718;2023-07-31T11:35:32;6.07;;;5.35;;
11829;SDS011;5972;42.134;24.718;2023-07-31T11:38:00;7.47;;;5.60;;
11829;SDS011;5972;42.134;24.718;2023-07-31T11:40:27;6.20;;;5.72;;
11829;SDS011;5972;42.134;24.718;2023-07-31T11:42:56;6.63;;;6.10;;
11829;SDS011;5972;42.134;24.718;2023-07-31T11:45:24;6.90;;;6.30;;
11829;SDS011;5972;42.134;24.718;2023-07-31T11:47:52;6.80;;;6.10;;
11829;SDS011;5972;42.134;24.718;2023-07-31T11:50:20;9.38;;;6.05;;
11829;SDS011;5972;42.134;24.718;2023-07-31T11:52:49;10.40;;;6.40;;
11829;SDS011;5972;42.134;24.718;2023-07-31T11:55:19;6.93;;;6.20;;
11829;SDS011;5972;42.134;24.718;2023-07-31T11:57:46;7.22;;;6.72;;
11829;SDS011;5972;42.134;24.718;2023-07-31T12:00:14;7.50;;;6.80;;
11829;SDS011;5972;42.134;24.718;2023-07-31T12:02:42;7.47;;;6.70;;
11829;SDS011;5972;42.134;24.718;2023-07-31T12:05:13;7.40;;;6.80;;
11829;SDS011;5972;42.134;24.718;2023-07-31T12:07:47;7.45;;;6.82;;
11829;SDS011;5972;42.134;24.718;2023-07-31T12:10:23;7.65;;;7.05;;
11829;SDS011;5972;42.134;24.718;2023-07-31T12:13:00;7.72;;;6.93;;
11829;SDS011;5972;42.134;24.718;2023-07-31T12:15:32;5.90;;;5.38;;
11829;SDS011;5972;42.134;24.718;2023-07-31T12:18:00;6.30;;;5.80;;
11829;SDS011;5972;42.134;24.718;2023-07-31T12:20:29;9.48;;;6.65;;
11829;SDS011;5972;42.134;24.718;2023-07-31T12:22:58;6.80;;;6.30;;
11829;SDS011;5972;42.134;24.718;2023-07-31T12:25:28;8.63;;;6.93;;
11829;SDS011;5972;42.134;24.718;2023-07-31T12:27:56;7.25;;;6.65;;
11829;SDS011;5972;42.134;24.718;2023-07-31T12:30:26;6.93;;;6.30;;
11829;SDS011;5972;42.134;24.718;2023-07-31T12:32:54;5.97;;;5.50;;
11829;SDS011;5972;42.134;24.718;2023-07-31T12:35:20;7.15;;;5.70;;
11829;SDS011;5972;42.134;24.718;2023-07-31T12:37:47;5.82;;;5.32;;
11829;SDS011;5972;42.134;24.718;2023-07-31T12:40:16;5.85;;;5.28;;
11829;SDS011;5972;42.134;24.718;2023-07-31T12:42:42;7.20;;;5.28;;
11829;SDS011;5972;42.134;24.718;2023-07-31T12:45:09;4.93;;;4.60;;
11829;SDS011;5972;42.134;24.718;2023-07-31T12:47:36;5.80;;;5.15;;
11829;SDS011;5972;42.134;24.718;2023-07-31T12:50:03;5.55;;;5.15;;
11829;SDS011;5972;42.134;24.718;2023-07-31T12:52:30;4.70;;;4.40;;
11829;SDS011;5972;42.134;24.718;2023-07-31T12:54:57;7.95;;;4.57;;
11829;SDS011;5972;42.134;24.718;2023-07-31T12:57:25;5.35;;;4.60;;
11829;SDS011;5972;42.134;24.718;2023-07-31T12:59:52;5.05;;;4.70;;
11829;SDS011;5972;42.134;24.718;2023-07-31T13:02:19;4.40;;;4.07;;
11829;SDS011;5972;42.134;24.718;2023-07-31T13:04:46;4.78;;;4.35;;
11829;SDS011;5972;42.134;24.718;2023-07-31T13:07:13;5.13;;;4.10;;
11829;SDS011;5972;42.134;24.718;2023-07-31T13:09:39;4.80;;;4.40;;
11829;SDS011;5972;42.134;24.718;2023-07-31T13:12:06;4.70;;;4.07;;
11829;SDS011;5972;42.134;24.718;2023-07-31T13:14:35;5.80;;;4.30;;
11829;SDS011;5972;42.134;24.718;2023-07-31T13:17:02;4.38;;;4.00;;
11829;SDS011;5972;42.134;24.718;2023-07-31T13:19:29;4.40;;;4.10;;
11829;SDS011;5972;42.134;24.718;2023-07-31T13:21:56;5.10;;;4.40;;
11829;SDS011;5972;42.134;24.718;2023-07-31T13:24:23;5.32;;;4.78;;
11829;SDS011;5972;42.134;24.718;2023-07-31T13:26:50;7.25;;;5.57;;
11829;SDS011;5972;42.134;24.718;2023-07-31T13:29:16;8.30;;;6.00;;
11829;SDS011;5972;42.134;24.718;2023-07-31T13:31:45;6.40;;;5.78;;
11829;SDS011;5972;42.134;24.718;2023-07-31T13:34:11;6.15;;;5.65;;
11829;SDS011;5972;42.134;24.718;2023-07-31T13:36:38;6.85;;;5.60;;
11829;SDS011;5972;42.134;24.718;2023-07-31T13:39:05;6.10;;;5.70;;
11829;SDS011;5972;42.134;24.718;2023-07-31T13:41:32;6.05;;;5.47;;
11829;SDS011;5972;42.134;24.718;2023-07-31T13:43:59;5.72;;;5.30;;
11829;SDS011;5972;42.134;24.718;2023-07-31T13:46:25;6.75;;;5.20;;
11829;SDS011;5972;42.134;24.718;2023-07-31T13:48:53;6.47;;;5.45;;
11829;SDS011;5972;42.134;24.718;2023-07-31T13:51:20;6.40;;;5.43;;
11829;SDS011;5972;42.134;24.718;2023-07-31T13:53:47;6.65;;;5.75;;
11829;SDS011;5972;42.134;24.718;2023-07-31T13:56:14;6.53;;;5.93;;
11829;SDS011;5972;42.134;24.718;2023-07-31T13:58:41;6.05;;;5.55;;
11829;SDS011;5972;42.134;24.718;2023-07-31T14:01:08;6.32;;;5.72;;
11829;SDS011;5972;42.134;24.718;2023-07-31T14:03:35;6.47;;;5.60;;
11829;SDS011;5972;42.134;24.718;2023-07-31T14:06:04;5.80;;;5.40;;
11829;SDS011;5972;42.134;24.718;2023-07-31T14:08:31;6.80;;;5.07;;
11829;SDS011;5972;42.134;24.718;2023-07-31T14:10:57;7.38;;;5.35;;
11829;SDS011;5972;42.134;24.718;2023-07-31T14:13:24;5.90;;;4.97;;
11829;SDS011;5972;42.134;24.718;2023-07-31T14:15:51;6.63;;;5.30;;
11829;SDS011;5972;42.134;24.718;2023-07-31T14:18:18;5.40;;;5.00;;
11829;SDS011;5972;42.134;24.718;2023-07-31T14:20:45;6.57;;;5.13;;
11829;SDS011;5972;42.134;24.718;2023-07-31T14:23:13;5.78;;;5.15;;
11829;SDS011;5972;42.134;24.718;2023-07-31T14:25:41;5.63;;;5.15;;
11829;SDS011;5972;42.134;24.718;2023-07-31T14:28:07;6.00;;;5.50;;
11829;SDS011;5972;42.134;24.718;2023-07-31T14:30:34;7.45;;;5.50;;
11829;SDS011;5972;42.134;24.718;2023-07-31T14:33:01;5.82;;;5.30;;
11829;SDS011;5972;42.134;24.718;2023-07-31T14:35:28;5.20;;;4.70;;
11829;SDS011;5972;42.134;24.718;2023-07-31T14:37:54;5.80;;;5.20;;
11829;SDS011;5972;42.134;24.718;2023-07-31T14:40:23;5.72;;;5.13;;
11829;SDS011;5972;42.134;24.718;2023-07-31T14:42:49;5.43;;;5.03;;
11829;SDS011;5972;42.134;24.718;2023-07-31T14:45:16;6.43;;;5.47;;
11829;SDS011;5972;42.134;24.718;2023-07-31T14:47:43;6.88;;;5.38;;
11829;SDS011;5972;42.134;24.718;2023-07-31T14:50:10;5.85;;;5.28;;